»·PEaware :: PAIN21 KEND-KEND

PAIN21 :: KEND-KEND

FLIGHT INFORMATION

Flight Status: Arrived
Operator: Unknown
More flights by this operator :: More flights under this callsign
Pilot: S. D. (21274)
Aircraft: BEECH AIRCRAFT T-6A TEXAN
(TEX2)
More flights by this aircraft type
Origin: KEND Vance AFB
United States
Destination: KEND Vance AFB
United States
More flights between these airports :: More routes between these airports
Route: +END8
File this flight plan on PilotEdge
Remarks:
Altitude:
(Current/Filed)
0ft
Speed:
(Current/Filed)
0kts
Departed: 26-Mar-20 07:15 AM
Arrived: 26-Mar-20 08:08 AM
Distance/Time
Traveled:
0nm/0:52
Distance/Time
To Go:
Arrived

Flight Plot

Page will automatically refresh every two minutes.


Map Options




Map Legend


Flown Route
Filed Route
Departure Airport
Arrival Airport
Navaid (VOR, NDB)
Fix

Horizontal Profiles

Position Reports

Time Latitude Longitude Heading Altitude Ground
Speed
26-Mar-20 07:13 36.334830 -97.910819 183 1506ft 138kts
26-Mar-20 07:14 36.287563 -97.908109 173 4077ft 178kts
26-Mar-20 07:15 36.237068 -97.881996 104 4890ft 236kts
26-Mar-20 07:17 36.263864 -97.809765 60 4931ft 236kts
26-Mar-20 07:18 36.294840 -97.739704 61 4967ft 240kts
26-Mar-20 07:19 36.324479 -97.665963 61 4935ft 237kts
26-Mar-20 07:20 36.344265 -97.590573 85 5186ft 229kts
26-Mar-20 07:21 36.350180 -97.509325 81 5443ft 241kts
26-Mar-20 07:22 36.383344 -97.432366 61 5365ft 268kts
26-Mar-20 07:23 36.405325 -97.344071 78 5397ft 270kts
26-Mar-20 07:24 36.462973 -97.297989 8 5391ft 260kts
26-Mar-20 07:25 36.533487 -97.272903 12 5663ft 258kts
26-Mar-20 07:26 36.605575 -97.254458 6 5572ft 268kts
26-Mar-20 07:27 36.678157 -97.238554 24 5440ft 263kts
26-Mar-20 07:28 36.713522 -97.163136 79 4577ft 255kts
26-Mar-20 07:29 36.753161 -97.115994 357 2607ft 176kts
26-Mar-20 07:30 36.759391 -97.099549 181 1593ft 116kts
26-Mar-20 07:31 36.729583 -97.099436 180 1308ft 134kts
26-Mar-20 07:32 36.708648 -97.122910 352 2557ft 220kts
26-Mar-20 07:33 36.756302 -97.118168 1 2461ft 132kts
26-Mar-20 07:34 36.746327 -97.099576 180 1174ft 111kts
26-Mar-20 07:34 36.720180 -97.098792 178 1870ft 150kts
26-Mar-20 07:36 36.743485 -97.117400 1 2487ft 177kts
26-Mar-20 07:37 36.753468 -97.099885 177 1439ft 119kts
26-Mar-20 07:38 36.721486 -97.099794 183 1534ft 157kts
26-Mar-20 07:38 36.681779 -97.103985 188 3743ft 189kts
26-Mar-20 07:39 36.624117 -97.124566 208 4700ft 249kts
26-Mar-20 07:40 36.565169 -97.178848 220 4514ft 272kts
26-Mar-20 07:41 36.507044 -97.232739 203 4399ft 232kts
26-Mar-20 07:43 36.434809 -97.247147 194 4465ft 228kts
26-Mar-20 07:43 36.391618 -97.274919 223 3236ft 209kts
26-Mar-20 07:44 36.411053 -97.265214 337 2296ft 125kts
26-Mar-20 07:45 36.390104 -97.277273 180 981ft 88kts
26-Mar-20 07:46 36.364474 -97.261289 44 2210ft 165kts
26-Mar-20 07:47 36.406726 -97.259231 353 2466ft 135kts
26-Mar-20 07:48 36.390962 -97.277253 181 990ft 105kts
26-Mar-20 07:49 36.348595 -97.278625 202 3160ft 180kts
26-Mar-20 07:50 36.307524 -97.322218 214 4496ft 219kts
26-Mar-20 07:51 36.254242 -97.364088 214 4444ft 230kts
26-Mar-20 07:52 36.202171 -97.412190 226 4729ft 235kts
26-Mar-20 07:53 36.157237 -97.474665 231 6033ft 248kts
26-Mar-20 07:54 36.182252 -97.507458 2 5843ft 251kts
26-Mar-20 07:55 36.248761 -97.496942 328 5671ft 226kts
26-Mar-20 07:56 36.285817 -97.563524 300 6068ft 250kts
26-Mar-20 07:57 36.322485 -97.636694 299 6011ft 248kts
26-Mar-20 07:58 36.355063 -97.712325 292 6030ft 248kts
26-Mar-20 07:59 36.388462 -97.785774 334 5444ft 259kts
26-Mar-20 08:00 36.457078 -97.783217 0 4326ft 240kts
26-Mar-20 08:01 36.502318 -97.834853 267 2627ft 232kts
26-Mar-20 08:02 36.469778 -97.898781 232 2320ft 214kts
26-Mar-20 08:03 36.414184 -97.908805 182 2336ft 204kts
26-Mar-20 08:04 36.357947 -97.911036 182 2264ft 201kts
26-Mar-20 08:05 36.358273 -97.897193 347 2131ft 125kts
26-Mar-20 08:06 36.342560 -97.911009 179 1283ft 71kts
26-Mar-20 08:07 36.333860 -97.910076 45 1291ft 11kts
26-Mar-20 08:08 36.333970 -97.909926 48 1291ft 0kts
26-Mar-20 08:09 36.334019 -97.909857 47 1291ft 0kts

Navigation Log

Ident Type
Flight plan parsing failed, navigation log unavailable